createdAt,value
2022-09-04T00:00:18.804Z,18.54
2022-09-04T00:03:15.572Z,18.54
2022-09-04T00:05:55.455Z,18.54
2022-09-04T00:08:31.419Z,18.52
2022-09-04T00:11:09.237Z,18.52
2022-09-04T00:14:00.133Z,18.58
2022-09-04T00:17:04.681Z,18.57
2022-09-04T00:19:32.033Z,18.56
2022-09-04T00:22:00.737Z,18.60
2022-09-04T00:24:36.967Z,18.55
2022-09-04T00:27:23.365Z,18.64
2022-09-04T00:30:11.450Z,18.64
2022-09-04T00:33:04.631Z,18.65
2022-09-04T00:35:36.797Z,18.62
2022-09-04T00:38:08.271Z,18.61
2022-09-04T00:41:01.635Z,18.60
2022-09-04T00:43:53.429Z,18.60
2022-09-04T00:46:26.831Z,18.61
2022-09-04T00:49:07.706Z,18.66
2022-09-04T00:52:11.211Z,18.66
2022-09-04T00:55:17.241Z,18.66
2022-09-04T00:57:49.961Z,18.65
2022-09-04T01:00:21.626Z,18.64
2022-09-04T01:03:23.698Z,18.66
2022-09-04T01:06:20.809Z,18.66
2022-09-04T01:09:05.143Z,18.66
2022-09-04T01:11:40.548Z,18.67
2022-09-04T01:14:18.847Z,18.69
2022-09-04T01:16:59.564Z,18.69
2022-09-04T01:19:29.658Z,18.68
2022-09-04T01:22:17.532Z,18.56
2022-09-04T01:25:05.763Z,18.49
2022-09-04T01:27:54.664Z,18.49
2022-09-04T01:30:22.519Z,18.50
2022-09-04T01:33:10.749Z,18.58
2022-09-04T01:36:08.676Z,18.33
2022-09-04T01:38:58.418Z,18.25
2022-09-04T01:41:38.219Z,18.22
2022-09-04T01:44:10.343Z,18.15
2022-09-04T01:46:47.679Z,18.07
2022-09-04T01:49:30.921Z,18.05
2022-09-04T01:51:57.710Z,17.98
2022-09-04T01:54:51.808Z,17.99
2022-09-04T01:57:37.156Z,17.98
2022-09-04T02:00:11.778Z,17.96
2022-09-04T02:02:56.559Z,17.93
2022-09-04T02:05:48.331Z,17.88
2022-09-04T02:08:41.267Z,17.85
2022-09-04T02:11:26.573Z,17.86
2022-09-04T02:14:17.673Z,17.87
2022-09-04T02:17:10.892Z,17.89
2022-09-04T02:19:44.830Z,17.83
2022-09-04T02:22:36.514Z,17.83
2022-09-04T02:25:30.319Z,17.77
2022-09-04T02:28:06.381Z,17.74
2022-09-04T02:30:58.337Z,17.72
2022-09-04T02:33:42.828Z,17.72
2022-09-04T02:36:43.041Z,17.72
2022-09-04T02:39:23.431Z,17.72
2022-09-04T02:42:05.472Z,17.73
2022-09-04T02:45:09.866Z,17.75
2022-09-04T02:47:55.266Z,17.82
2022-09-04T02:51:13.900Z,17.83
2022-09-04T02:54:08.542Z,17.76
2022-09-04T02:56:38.269Z,17.72
2022-09-04T02:59:23.989Z,17.70
2022-09-04T03:02:00.875Z,17.69
2022-09-04T03:04:49.796Z,17.69
2022-09-04T03:07:33.514Z,17.64
2022-09-04T03:10:11.739Z,17.60
2022-09-04T03:12:42.196Z,17.60
2022-09-04T03:15:27.853Z,17.59
2022-09-04T03:18:06.726Z,17.55
2022-09-04T03:20:44.802Z,17.58
2022-09-04T03:23:33.865Z,17.59
2022-09-04T03:26:03.689Z,17.62
2022-09-04T03:28:39.180Z,17.61
2022-09-04T03:31:45.758Z,17.58
2022-09-04T03:34:33.856Z,17.59
2022-09-04T03:37:12.139Z,17.57
2022-09-04T03:39:49.572Z,17.58
2022-09-04T03:42:54.483Z,17.58
2022-09-04T03:45:39.333Z,17.59
2022-09-04T03:48:18.932Z,17.54
2022-09-04T03:51:01.426Z,17.53
2022-09-04T03:53:57.388Z,17.55
2022-09-04T03:56:32.795Z,17.55
2022-09-04T03:59:12.307Z,17.54
2022-09-04T04:01:49.705Z,17.50
2022-09-04T04:04:35.236Z,17.49
2022-09-04T04:07:35.418Z,17.43
2022-09-04T04:10:33.411Z,17.33
2022-09-04T04:13:19.300Z,17.28
2022-09-04T04:15:55.770Z,17.26
2022-09-04T04:18:28.727Z,17.23
2022-09-04T04:21:13.862Z,17.20
2022-09-04T04:24:17.173Z,17.20
2022-09-04T04:26:57.504Z,17.20
2022-09-04T04:29:39.681Z,17.21
2022-09-04T04:32:25.486Z,17.21
2022-09-04T04:35:03.372Z,17.21
2022-09-04T04:37:50.251Z,17.21
2022-09-04T04:41:00.018Z,17.17
2022-09-04T04:43:50.059Z,17.19
2022-09-04T04:46:38.929Z,17.19
2022-09-04T04:49:28.759Z,17.21
2022-09-04T04:52:08.611Z,17.19
2022-09-04T04:54:42.260Z,17.17
2022-09-04T04:57:16.259Z,17.17
2022-09-04T05:00:04.966Z,17.16
2022-09-04T05:03:00.696Z,17.09
2022-09-04T05:06:07.075Z,17.08
2022-09-04T05:08:43.193Z,17.06
2022-09-04T05:11:37.985Z,17.03
2022-09-04T05:14:19.735Z,16.98
2022-09-04T05:17:01.140Z,16.96
2022-09-04T05:20:02.349Z,16.95
2022-09-04T05:22:38.731Z,16.92
2022-09-04T05:25:16.266Z,16.91
2022-09-04T05:27:43.083Z,16.87
2022-09-04T05:30:14.173Z,16.84
2022-09-04T05:32:53.462Z,16.82
2022-09-04T05:35:35.587Z,16.80
2022-09-04T05:38:11.084Z,16.78
2022-09-04T05:40:56.293Z,16.77
2022-09-04T05:43:38.760Z,16.77
2022-09-04T05:46:36.142Z,16.76
2022-09-04T05:49:35.548Z,16.75
2022-09-04T05:52:09.682Z,16.76
2022-09-04T05:54:55.406Z,16.76
2022-09-04T05:57:31.402Z,16.76
2022-09-04T06:00:07.000Z,16.77
2022-09-04T06:02:49.771Z,16.78
2022-09-04T06:05:45.273Z,16.80
2022-09-04T06:08:31.880Z,16.79
2022-09-04T06:11:32.723Z,16.78
2022-09-04T06:14:14.884Z,16.77
2022-09-04T06:16:56.801Z,16.78
2022-09-04T06:20:00.885Z,16.78
2022-09-04T06:22:50.877Z,16.80
2022-09-04T06:25:37.287Z,16.82
2022-09-04T06:28:26.890Z,16.85
2022-09-04T06:31:02.924Z,16.87
2022-09-04T06:33:59.043Z,16.90
2022-09-04T06:37:00.081Z,16.94
2022-09-04T06:40:05.291Z,17.00
2022-09-04T06:42:49.291Z,17.05
2022-09-04T06:45:35.351Z,17.10
2022-09-04T06:48:20.904Z,17.14
2022-09-04T06:50:57.048Z,17.16
2022-09-04T06:53:37.583Z,17.20
2022-09-04T06:56:48.808Z,17.25
2022-09-04T06:59:42.312Z,17.31
2022-09-04T07:02:31.570Z,17.34
2022-09-04T07:05:29.421Z,17.39
2022-09-04T07:08:09.033Z,17.48
2022-09-04T07:11:03.939Z,17.55
2022-09-04T07:13:49.112Z,17.64
2022-09-04T07:16:22.043Z,17.70
2022-09-04T07:19:10.725Z,17.78
2022-09-04T07:22:17.865Z,17.85
2022-09-04T07:24:47.624Z,17.95
2022-09-04T07:27:25.161Z,18.01
2022-09-04T07:30:02.251Z,18.09
2022-09-04T07:32:34.420Z,18.15
2022-09-04T07:35:20.194Z,18.21
2022-09-04T07:38:15.657Z,18.29
2022-09-04T07:40:46.787Z,18.37
2022-09-04T07:43:34.927Z,18.43
2022-09-04T07:46:33.373Z,18.48
2022-09-04T07:49:10.890Z,18.58
2022-09-04T07:51:45.359Z,18.66
2022-09-04T07:54:55.313Z,18.77
2022-09-04T07:57:49.392Z,18.85
2022-09-04T08:00:18.762Z,18.92
2022-09-04T08:02:58.610Z,19.00
2022-09-04T08:05:50.505Z,19.10
2022-09-04T08:08:23.501Z,19.18
2022-09-04T08:11:09.354Z,19.25
2022-09-04T08:14:04.291Z,19.33
2022-09-04T08:16:40.945Z,19.41
2022-09-04T08:19:33.816Z,19.52
2022-09-04T08:22:03.068Z,19.61
2022-09-04T08:24:45.115Z,19.70
2022-09-04T08:27:17.635Z,19.79
2022-09-04T08:29:44.422Z,19.86
2022-09-04T08:32:28.560Z,19.97
2022-09-04T08:35:36.071Z,20.09
2022-09-04T08:38:38.327Z,20.22
2022-09-04T08:41:42.788Z,20.36
2022-09-04T08:44:15.891Z,20.46
2022-09-04T08:46:49.358Z,20.54
2022-09-04T08:49:24.374Z,20.66
2022-09-04T08:52:07.066Z,20.74
2022-09-04T08:54:55.092Z,20.84
2022-09-04T08:57:52.232Z,20.93
2022-09-04T09:00:21.364Z,21.00
2022-09-04T09:03:32.890Z,21.11
2022-09-04T09:05:59.682Z,21.20
2022-09-04T09:09:05.115Z,21.28
2022-09-04T09:11:34.569Z,21.36
2022-09-04T09:14:21.379Z,21.44
2022-09-04T09:17:05.846Z,21.55
2022-09-04T09:20:10.995Z,21.63
2022-09-04T09:22:43.800Z,21.64
2022-09-04T09:25:34.356Z,21.70
2022-09-04T09:28:34.655Z,21.77
2022-09-04T09:31:22.647Z,21.89
2022-09-04T09:34:05.423Z,21.97
2022-09-04T09:37:02.322Z,22.01
2022-09-04T09:40:06.885Z,22.10
2022-09-04T09:43:02.075Z,22.26
2022-09-04T09:46:08.124Z,22.25
2022-09-04T09:49:14.989Z,22.30
2022-09-04T09:51:44.971Z,22.33
2022-09-04T09:54:30.970Z,22.49
2022-09-04T09:57:33.562Z,22.57
2022-09-04T10:00:09.536Z,22.64
2022-09-04T10:02:38.183Z,22.76
2022-09-04T10:05:32.067Z,22.84
2022-09-04T10:08:46.933Z,22.96
2022-09-04T10:11:36.747Z,23.05
2022-09-04T10:14:40.718Z,23.05
2022-09-04T10:17:47.650Z,23.11
2022-09-04T10:20:46.144Z,23.22
2022-09-04T10:23:37.469Z,23.25
2022-09-04T10:26:29.350Z,23.37
2022-09-04T10:29:29.010Z,23.51
2022-09-04T10:32:36.539Z,23.62
2022-09-04T10:35:16.471Z,23.80
2022-09-04T10:38:04.789Z,23.93
2022-09-04T10:41:17.255Z,24.00
2022-09-04T10:44:02.318Z,24.10
2022-09-04T10:47:13.872Z,24.29
2022-09-04T10:49:40.757Z,24.37
2022-09-04T10:52:51.472Z,24.49
2022-09-04T10:55:33.047Z,24.69
2022-09-04T10:58:26.314Z,24.96
2022-09-04T11:01:18.569Z,24.98
2022-09-04T11:04:23.174Z,25.02
2022-09-04T11:06:57.647Z,25.22
2022-09-04T11:10:11.531Z,25.29
2022-09-04T11:13:09.230Z,25.41
2022-09-04T11:16:05.478Z,25.59
2022-09-04T11:18:57.362Z,25.72
2022-09-04T11:21:51.476Z,25.69
2022-09-04T11:24:41.394Z,25.67
2022-09-04T11:27:47.660Z,25.45
2022-09-04T11:30:18.257Z,25.44
2022-09-04T11:32:58.828Z,25.47
2022-09-04T11:35:29.674Z,25.56
2022-09-04T11:38:40.001Z,25.69
2022-09-04T11:41:29.022Z,25.93
2022-09-04T11:44:18.858Z,25.98
2022-09-04T11:47:03.994Z,26.10
2022-09-04T11:49:57.092Z,26.20
2022-09-04T11:53:02.472Z,26.17
2022-09-04T11:55:57.361Z,26.18
2022-09-04T11:59:01.519Z,26.13
2022-09-04T12:01:31.021Z,26.22
2022-09-04T12:04:23.165Z,26.29
2022-09-04T12:07:20.905Z,26.42
2022-09-04T12:10:02.695Z,26.38
2022-09-04T12:12:35.605Z,26.36
2022-09-04T12:15:17.929Z,26.23
2022-09-04T12:18:02.276Z,26.29
2022-09-04T12:21:01.759Z,26.38
2022-09-04T12:23:42.488Z,26.47
2022-09-04T12:26:33.852Z,26.50
2022-09-04T12:29:24.019Z,26.61
2022-09-04T12:32:11.642Z,26.61
2022-09-04T12:35:00.224Z,26.68
2022-09-04T12:37:51.063Z,26.72
2022-09-04T12:40:42.778Z,26.78
2022-09-04T12:43:30.738Z,26.87
2022-09-04T12:46:10.707Z,26.91
2022-09-04T12:49:18.606Z,26.94
2022-09-04T12:52:00.349Z,27.06
2022-09-04T12:54:43.429Z,27.20
2022-09-04T12:57:46.594Z,27.25
2022-09-04T13:00:17.964Z,27.40
2022-09-04T13:03:22.562Z,27.40
2022-09-04T13:06:06.665Z,27.41
2022-09-04T13:08:36.672Z,27.54
2022-09-04T13:11:21.824Z,27.59
2022-09-04T13:14:09.014Z,27.65
2022-09-04T13:16:54.874Z,27.68
2022-09-04T13:19:52.387Z,27.73
2022-09-04T13:22:28.895Z,27.81
2022-09-04T13:25:08.452Z,27.91
2022-09-04T13:27:41.281Z,28.01
2022-09-04T13:30:21.657Z,28.08
2022-09-04T13:33:11.250Z,28.08
2022-09-04T13:36:23.957Z,27.89
2022-09-04T13:39:18.525Z,28.05
2022-09-04T13:42:09.199Z,28.00
2022-09-04T13:45:02.128Z,27.90
2022-09-04T13:47:41.610Z,27.86
2022-09-04T13:50:17.222Z,27.93
2022-09-04T13:53:15.644Z,28.01
2022-09-04T13:55:54.206Z,28.11
2022-09-04T13:58:28.124Z,28.21
2022-09-04T14:00:59.323Z,28.30
2022-09-04T14:03:39.636Z,28.49
2022-09-04T14:06:10.054Z,28.61
2022-09-04T14:08:39.648Z,28.70
2022-09-04T14:11:33.895Z,28.86
2022-09-04T14:14:13.555Z,28.89
2022-09-04T14:16:41.647Z,28.91
2022-09-04T14:19:49.208Z,28.76
2022-09-04T14:22:52.201Z,28.77
2022-09-04T14:28:22.353Z,28.74
2022-09-04T14:30:29.330Z,28.75
2022-09-04T14:31:00.787Z,28.69
2022-09-04T14:33:49.932Z,28.69
2022-09-04T14:36:35.474Z,28.69
2022-09-04T14:39:09.519Z,28.70
2022-09-04T14:41:54.367Z,28.77
2022-09-04T14:44:35.692Z,28.82
2022-09-04T14:47:17.243Z,28.87
2022-09-04T14:49:48.208Z,28.88
2022-09-04T14:52:21.569Z,28.92
2022-09-04T14:54:54.110Z,28.98
2022-09-04T14:57:36.118Z,28.84
2022-09-04T15:00:20.738Z,28.69
2022-09-04T15:03:17.072Z,28.73
2022-09-04T15:05:57.601Z,28.72
2022-09-04T15:08:34.702Z,28.47
2022-09-04T15:11:08.940Z,28.56
2022-09-04T15:13:53.172Z,28.55
2022-09-04T15:16:44.248Z,28.55
2022-09-04T15:19:32.887Z,28.47
2022-09-04T15:22:12.661Z,28.53
2022-09-04T15:25:00.845Z,28.57
2022-09-04T15:27:49.867Z,28.64
2022-09-04T15:30:33.551Z,28.72
2022-09-04T15:33:06.766Z,28.66
2022-09-04T15:35:34.976Z,28.70
2022-09-04T15:38:20.920Z,28.73
2022-09-04T15:41:26.448Z,28.76
2022-09-04T15:44:08.762Z,28.75
2022-09-04T15:46:38.740Z,28.72
2022-09-04T15:49:31.428Z,28.72
2022-09-04T15:52:24.322Z,28.70
2022-09-04T15:55:09.510Z,28.65
2022-09-04T15:57:59.732Z,28.65
2022-09-04T16:00:27.368Z,28.58
2022-09-04T16:03:16.034Z,28.45
2022-09-04T16:05:59.188Z,28.46
2022-09-04T16:08:42.681Z,28.30
2022-09-04T16:11:28.866Z,28.27
2022-09-04T16:14:11.502Z,28.12
2022-09-04T16:16:53.397Z,28.13
2022-09-04T16:19:23.730Z,28.12
2022-09-04T16:21:50.511Z,28.12
2022-09-04T16:24:21.291Z,28.17
2022-09-04T16:26:53.467Z,28.20
2022-09-04T16:29:28.341Z,28.18
2022-09-04T16:31:57.613Z,28.14
2022-09-04T16:34:25.702Z,28.14
2022-09-04T16:37:09.528Z,28.10
2022-09-04T16:39:43.507Z,28.05
2022-09-04T16:42:32.291Z,28.03
2022-09-04T16:45:13.781Z,27.95
2022-09-04T16:47:49.982Z,27.93
2022-09-04T16:50:22.240Z,27.89
2022-09-04T16:53:13.652Z,27.82
2022-09-04T16:55:47.022Z,27.74
2022-09-04T16:58:29.898Z,27.69
2022-09-04T17:01:13.693Z,27.65
2022-09-04T17:04:12.420Z,27.59
2022-09-04T17:06:57.441Z,27.54
2022-09-04T17:09:52.024Z,27.51
2022-09-04T17:12:56.966Z,27.46
2022-09-04T17:15:29.442Z,27.41
2022-09-04T17:17:57.118Z,27.35
2022-09-04T17:21:09.668Z,27.31
2022-09-04T17:29:02.818Z,27.26
2022-09-04T17:29:13.983Z,27.19
2022-09-04T17:29:44.620Z,27.10
2022-09-04T17:34:31.456Z,27.06
2022-09-04T17:40:36.253Z,27.02
2022-09-04T17:40:53.106Z,26.96
2022-09-04T17:41:57.051Z,26.88
2022-09-04T17:44:57.418Z,26.76
2022-09-04T17:47:37.979Z,26.67
2022-09-04T17:50:16.334Z,26.56
2022-09-04T17:53:10.421Z,26.42
2022-09-04T17:55:48.076Z,26.30
2022-09-04T17:58:22.051Z,26.19
2022-09-04T18:01:14.190Z,26.04
2022-09-04T18:04:21.829Z,25.91
2022-09-04T18:07:33.529Z,25.77
2022-09-04T18:10:31.090Z,25.63
2022-09-04T18:13:08.907Z,25.49
2022-09-04T18:16:00.532Z,25.33
2022-09-04T18:18:37.300Z,25.25
2022-09-04T18:21:17.267Z,25.17
2022-09-04T18:24:04.144Z,25.09
2022-09-04T18:26:41.169Z,24.98
2022-09-04T18:29:30.483Z,24.89
2022-09-04T18:37:09.677Z,24.80
2022-09-04T18:37:17.417Z,24.72
2022-09-04T18:38:14.872Z,24.66
2022-09-04T18:45:38.975Z,24.58
2022-09-04T18:50:24.956Z,24.48
2022-09-04T18:50:32.526Z,24.32
2022-09-04T18:50:46.628Z,24.41
2022-09-04T18:52:15.584Z,24.24
2022-09-04T18:54:48.194Z,24.15
2022-09-04T18:57:36.250Z,24.07
2022-09-04T19:00:10.125Z,24.01
2022-09-04T19:02:53.430Z,23.96
2022-09-04T19:05:21.900Z,23.90
2022-09-04T19:07:55.964Z,23.84
2022-09-04T19:10:28.755Z,23.77
2022-09-04T19:13:01.798Z,23.73
2022-09-04T19:17:10.901Z,23.63
2022-09-04T19:19:54.949Z,23.59
2022-09-04T19:22:33.209Z,23.53
2022-09-04T19:25:08.151Z,23.49
2022-09-04T19:27:49.964Z,23.43
2022-09-04T19:30:23.972Z,23.37
2022-09-04T19:33:10.680Z,23.32
2022-09-04T19:35:53.523Z,23.26
2022-09-04T19:45:30.807Z,23.20
2022-09-04T19:46:12.819Z,23.02
2022-09-04T19:46:19.716Z,23.09
2022-09-04T19:47:59.561Z,22.96
2022-09-04T19:53:24.585Z,22.89
2022-09-04T19:53:48.462Z,22.85
2022-09-04T19:56:29.258Z,22.83
2022-09-04T19:59:19.099Z,22.83
2022-09-04T20:02:03.211Z,22.80
2022-09-04T20:04:42.525Z,22.80
2022-09-04T20:07:19.514Z,22.80
2022-09-04T20:09:50.272Z,22.82
2022-09-04T20:12:40.949Z,22.77
2022-09-04T20:15:13.005Z,22.74
2022-09-04T20:17:40.692Z,22.72
2022-09-04T20:20:29.295Z,22.71
2022-09-04T20:23:02.289Z,22.68
2022-09-04T20:26:03.564Z,22.65
2022-09-04T20:28:36.342Z,22.62
2022-09-04T20:31:35.321Z,22.59
2022-09-04T20:34:12.550Z,22.57
2022-09-04T20:36:48.786Z,22.53
2022-09-04T20:39:22.961Z,22.53
2022-09-04T20:42:00.526Z,22.56
2022-09-04T20:46:46.934Z,22.57
2022-09-04T20:52:43.516Z,22.56
2022-09-04T20:52:52.614Z,22.55
2022-09-04T20:53:50.097Z,22.53
2022-09-04T21:00:39.284Z,22.54
2022-09-04T21:03:10.209Z,22.53
2022-09-04T21:03:18.655Z,22.51
2022-09-04T21:06:07.975Z,22.49
2022-09-04T21:09:01.108Z,22.46
2022-09-04T21:11:39.092Z,22.44
2022-09-04T21:14:45.939Z,22.42
2022-09-04T21:17:54.715Z,22.38
2022-09-04T21:20:59.297Z,22.37
2022-09-04T21:23:46.277Z,22.33
2022-09-04T21:26:46.543Z,22.30
2022-09-04T21:29:28.494Z,22.28
2022-09-04T21:32:48.890Z,22.26
2022-09-04T21:35:20.230Z,22.24
2022-09-04T21:38:18.168Z,22.26
2022-09-04T21:40:51.637Z,22.28
2022-09-04T21:43:53.115Z,22.27
2022-09-04T21:46:42.117Z,22.26
2022-09-04T21:49:27.828Z,22.26
2022-09-04T21:52:24.531Z,22.25
2022-09-04T21:59:29.951Z,22.25
2022-09-04T22:02:28.230Z,22.17
2022-09-04T22:02:48.432Z,22.15
2022-09-04T22:04:49.172Z,22.14
2022-09-04T22:11:34.508Z,22.14
2022-09-04T22:13:44.180Z,22.13
2022-09-04T22:13:50.380Z,22.13
2022-09-04T22:16:34.439Z,22.13
2022-09-04T22:19:29.443Z,22.18
2022-09-04T22:22:16.005Z,22.20
2022-09-04T22:25:00.179Z,22.11
2022-09-04T22:28:13.063Z,22.07
2022-09-04T22:31:04.602Z,22.06
2022-09-04T22:34:15.953Z,22.06
2022-09-04T22:37:09.761Z,22.04
2022-09-04T22:39:39.618Z,22.03
2022-09-04T22:42:25.154Z,22.01
2022-09-04T22:45:07.207Z,22.02
2022-09-04T22:48:05.856Z,22.03
2022-09-04T22:50:56.442Z,22.01
2022-09-04T22:53:46.823Z,22.03
2022-09-04T22:56:33.894Z,22.04
2022-09-04T22:59:27.448Z,22.03
2022-09-04T23:02:48.138Z,22.02
2022-09-04T23:05:52.799Z,22.00
2022-09-04T23:13:50.971Z,21.96
2022-09-04T23:13:58.274Z,21.93
2022-09-04T23:15:08.358Z,21.93
2022-09-04T23:17:52.872Z,21.92
2022-09-04T23:26:31.722Z,21.92
2022-09-04T23:26:44.648Z,21.98
2022-09-04T23:27:11.805Z,21.98
2022-09-04T23:30:18.193Z,21.98
2022-09-04T23:33:27.953Z,21.95
2022-09-04T23:36:09.432Z,21.93
2022-09-04T23:39:04.189Z,21.92
2022-09-04T23:41:52.805Z,21.90
2022-09-04T23:44:39.043Z,21.89
2022-09-04T23:47:47.928Z,21.87
2022-09-04T23:50:43.513Z,21.86
2022-09-04T23:53:29.317Z,21.83
2022-09-04T23:56:27.145Z,21.77
2022-09-04T23:59:29.645Z,21.74
